Accueil
METAR-TAF:

METAR-TAF

Aéroports :

Berlin, New Hampshire, États-Unis

latitude: 44-34-34N, longitude: 071-10-43W, altitude: 353 m

Observation

Le bulletin a été fait il y a 9 heures et 25 minutes, à 23:52 UTC
Vent 3 kt de nord/nord-ouest
Température 15°C
Humidité 39%
Pression 1023 hPa
Visibilité: 16.1 km
Ciel clair

METAR: KBML 222352Z AUTO 34003KT 10SM CLR 15/01 A3022 RMK AO2 SLP236 T01500011 10189 20150 51008

Heure: 05:17 (09:17 UTC)


TAF: absent

Observations et prévisions météorologiques de plus de 4000 aéroports (messages METAR et TAF).

Les stations disponibles sont représentées par des disques jaunes et rouges sur la carte.

Passer la souris dessus pour voir le nom de la station.

Cliquer dessus pour voir les observations et prévisions météorologiques.

Pour changer de carte: cliquez sur les boutons verts avec une croix noire pour zoomer, sur le bouton vert avec un tiret pour effectuer un zoom arrière, ou sur les flèches vertes pour les cartes adjacentes.


METAR-TAF: